Pleasant Hill, Texas
Current Conditions -  °F | °C
As of 2:53 PM on Friday 24 Oct 2014 (Local Time) from KLFK Reporting Station
Clear Clear  
Wind Chill: 81°   Ceiling: Unl
Heat Index: 81°   Visibility: 10mi
Dew Point: 53°   Wind: 6mph
Humidity: 38%   Direction: 310°NW
Pressure: 30.11"   Gusts: NA
Location:  31.024°N, 94.7686°W
Report Text: KLFK 241953Z AUTO 31005KT 10SM CLR 27/12 A3011 RMK AO2 SLP193 T02720117
Loading
Personal Weather Stations






























Interactive Weather Map
Tropical Storm Tracking
New forecast layout! Learn more

10-Day Weather Forecast

Advertisements
Track Severe Weather on mobile